Time;durP1;ratioP1;P1;durP2;ratioP2;P2;SDS_P1;SDS_P2;PMS_P1;PMS_P2;Temp;Humidity;BMP_temperature;BMP_pressure;BME280_temperature;BME280_humidity;BME280_pressure;Samples;Min_cycle;Max_cycle;Signal;HPM_P1;HPM_P2
2022/09/18 00:01:12;;;;;;;;;;;7.40;99.90;;;;;;5052518;28;19929;-73
2022/09/18 00:03:45;;;;;;;;;;;7.40;99.90;;;;;;5070566;28;19932;-73
2022/09/18 00:06:19;;;;;;;;;;;7.30;99.90;;;;;;5074030;28;19928;-72
2022/09/18 00:08:56;;;;;;;;;;;7.30;99.90;;;;;;5078556;28;19939;-73
2022/09/18 00:11:29;;;;;;;;;;;7.30;99.90;;;;;;5073251;28;19932;-73
2022/09/18 00:14:01;;;;;;;;;;;7.30;99.90;;;;;;5043205;28;19974;-73
2022/09/18 00:16:32;;;;;;;;;;;7.30;99.90;;;;;;5038835;28;19924;-72
2022/09/18 00:18:59;;;;;;;;;;;7.30;99.90;;;;;;5050508;28;19925;-72
2022/09/18 00:21:31;;;;;;;;;;;7.40;99.90;;;;;;5058422;28;20276;-73
2022/09/18 00:24:03;;;;;;;;;;;7.40;99.90;;;;;;5045192;28;19931;-73
2022/09/18 00:26:35;;;;;;;;;;;7.40;99.90;;;;;;5064418;28;19924;-72
2022/09/18 00:29:06;;;;;;;;;;;7.50;99.90;;;;;;5074085;28;19928;-72
2022/09/18 00:31:39;;;;;;;;;;;7.50;99.90;;;;;;5071392;28;19924;-73
2022/09/18 00:34:13;;;;;;;;;;;7.50;99.90;;;;;;5058877;28;20295;-73
2022/09/18 00:36:44;;;;;;;;;;;7.50;99.90;;;;;;5065402;28;19931;-73
2022/09/18 00:39:16;;;;;;;;;;;7.50;99.90;;;;;;5059403;28;19931;-72
2022/09/18 00:41:43;;;;;;;;;;;7.50;99.90;;;;;;5061717;28;19978;-73
2022/09/18 00:44:31;;;;;;;;;;;7.50;99.90;;;;;;5074731;28;19932;-72
2022/09/18 00:47:09;;;;;;;;;;;7.50;99.90;;;;;;5043141;28;19978;-72
2022/09/18 00:49:43;;;;;;;;;;;7.50;99.90;;;;;;5065994;28;19928;-73
2022/09/18 00:52:16;;;;;;;;;;;7.60;99.90;;;;;;5047339;28;19928;-73
2022/09/18 00:54:46;;;;;;;;;;;7.60;99.90;;;;;;5063793;28;19928;-73
2022/09/18 00:57:24;;;;;;;;;;;7.60;99.90;;;;;;5046387;28;20462;-72
2022/09/18 00:59:56;;;;;;;;;;;7.60;99.90;;;;;;5058914;28;20007;-72
2022/09/18 01:02:23;;;;;;;;;;;7.70;99.90;;;;;;5061122;28;19928;-73
2022/09/18 01:04:55;;;;;;;;;;;7.70;99.90;;;;;;5074827;28;19928;-72
2022/09/18 01:07:42;;;;;;;;;;;7.70;99.90;;;;;;5057742;28;19925;-72
2022/09/18 01:10:23;;;;;;;;;;;7.80;99.90;;;;;;5051245;28;20582;-72
2022/09/18 01:12:53;;;;;;;;;;;7.80;99.90;;;;;;5050696;28;20024;-73
2022/09/18 01:15:40;;;;;;;;;;;7.70;99.90;;;;;;5066155;28;19925;-72
2022/09/18 01:18:17;;;;;;;;;;;7.70;99.90;;;;;;5081949;28;19928;-72
2022/09/18 01:21:06;;;;;;;;;;;7.70;99.90;;;;;;5065314;28;19928;-73
2022/09/18 01:23:41;;;;;;;;;;;7.70;99.90;;;;;;5061360;28;19932;-73
2022/09/18 01:26:12;;;;;;;;;;;7.70;99.90;;;;;;5039883;28;19936;-73
2022/09/18 01:29:00;;;;;;;;;;;7.70;99.90;;;;;;5044779;28;19928;-72
2022/09/18 01:31:37;;;;;;;;;;;7.70;99.90;;;;;;5023318;28;20411;-73
2022/09/18 01:34:29;;;;;;;;;;;7.70;99.90;;;;;;5055180;28;20023;-73
2022/09/18 01:37:05;;;;;;;;;;;7.80;99.90;;;;;;5059606;28;19968;-73
2022/09/18 01:39:37;;;;;;;;;;;7.80;99.90;;;;;;5055457;28;20122;-73
2022/09/18 01:42:10;;;;;;;;;;;7.80;99.90;;;;;;5077787;28;20334;-73
2022/09/18 01:44:43;;;;;;;;;;;7.80;99.90;;;;;;5058575;28;19971;-73
2022/09/18 01:47:15;;;;;;;;;;;7.80;99.90;;;;;;5060640;28;19928;-73
2022/09/18 01:49:48;;;;;;;;;;;7.80;99.90;;;;;;5058376;28;19930;-73
2022/09/18 01:52:22;;;;;;;;;;;7.80;99.90;;;;;;5054635;28;19948;-73
2022/09/18 01:54:50;;;;;;;;;;;7.90;99.90;;;;;;5040373;28;19960;-73
2022/09/18 01:57:26;;;;;;;;;;;7.90;99.90;;;;;;5071626;28;19973;-73
2022/09/18 02:00:04;;;;;;;;;;;7.90;99.90;;;;;;5058887;28;20394;-73
2022/09/18 02:02:44;;;;;;;;;;;7.90;99.90;;;;;;5067845;28;19925;-73
2022/09/18 02:05:23;;;;;;;;;;;7.90;99.90;;;;;;5066835;28;19930;-72
2022/09/18 02:07:55;;;;;;;;;;;7.90;99.90;;;;;;5038704;28;20337;-72
2022/09/18 02:10:28;;;;;;;;;;;7.90;99.90;;;;;;5054223;28;19925;-72
2022/09/18 02:12:55;;;;;;;;;;;7.90;99.90;;;;;;5059808;28;19928;-73
2022/09/18 02:15:29;;;;;;;;;;;7.90;99.90;;;;;;5063843;28;19935;-72
2022/09/18 02:18:12;;;;;;;;;;;7.90;99.90;;;;;;5068304;28;20055;-73
2022/09/18 02:20:45;;;;;;;;;;;7.90;99.90;;;;;;5068029;28;20275;-73
2022/09/18 02:23:17;;;;;;;;;;;7.90;99.90;;;;;;5075473;28;19932;-73
2022/09/18 02:25:51;;;;;;;;;;;7.90;99.90;;;;;;5071355;28;19929;-73
2022/09/18 02:28:24;;;;;;;;;;;8.00;99.90;;;;;;5038199;28;20023;-72
2022/09/18 02:30:57;;;;;;;;;;;8.00;99.90;;;;;;5066414;28;20401;-73
2022/09/18 02:33:30;;;;;;;;;;;8.00;99.90;;;;;;5070176;28;19935;-73
2022/09/18 02:36:16;;;;;;;;;;;8.00;99.90;;;;;;5069018;28;19975;-73
2022/09/18 02:38:55;;;;;;;;;;;8.00;99.90;;;;;;5056171;28;19924;-72
2022/09/18 02:41:37;;;;;;;;;;;8.00;99.90;;;;;;5051883;28;19924;-73
2022/09/18 02:44:29;;;;;;;;;;;8.00;99.90;;;;;;5064586;28;19924;-72
2022/09/18 02:47:06;;;;;;;;;;;8.10;99.90;;;;;;5050722;28;19924;-73
2022/09/18 02:49:51;;;;;;;;;;;8.10;99.90;;;;;;5049592;28;19970;-72
2022/09/18 02:52:24;;;;;;;;;;;8.10;99.90;;;;;;5050977;28;19943;-73
2022/09/18 02:55:01;;;;;;;;;;;8.10;99.90;;;;;;5061899;28;20018;-73
2022/09/18 02:57:36;;;;;;;;;;;8.10;99.90;;;;;;5062856;28;19935;-73
2022/09/18 03:00:14;;;;;;;;;;;8.10;99.90;;;;;;5055821;28;19931;-73
2022/09/18 03:02:40;;;;;;;;;;;8.10;99.90;;;;;;5062471;28;19928;-72
2022/09/18 03:05:17;;;;;;;;;;;8.10;99.90;;;;;;5066937;28;19959;-73
2022/09/18 03:07:53;;;;;;;;;;;8.00;99.90;;;;;;5059141;28;20421;-72
2022/09/18 03:10:27;;;;;;;;;;;8.00;99.90;;;;;;5061595;28;19928;-72
2022/09/18 03:12:59;;;;;;;;;;;8.00;99.90;;;;;;5051223;28;19930;-73
2022/09/18 03:15:31;;;;;;;;;;;8.10;99.90;;;;;;5067873;28;19936;-73
2022/09/18 03:18:03;;;;;;;;;;;8.00;99.90;;;;;;5041285;28;19964;-72
2022/09/18 03:20:34;;;;;;;;;;;8.00;99.90;;;;;;5061150;28;20418;-72
2022/09/18 03:23:06;;;;;;;;;;;8.10;99.90;;;;;;5062416;28;19930;-73
2022/09/18 03:25:39;;;;;;;;;;;8.00;99.90;;;;;;5064153;28;19928;-73
2022/09/18 03:28:13;;;;;;;;;;;8.10;99.90;;;;;;5082712;28;19925;-73
2022/09/18 03:30:44;;;;;;;;;;;8.10;99.90;;;;;;5053418;28;19924;-72
2022/09/18 03:33:17;;;;;;;;;;;8.10;99.90;;;;;;5063829;28;20064;-72
2022/09/18 03:35:44;;;;;;;;;;;8.20;99.90;;;;;;5054472;28;19989;-73
2022/09/18 03:38:15;;;;;;;;;;;8.20;99.90;;;;;;5060333;28;19924;-72
2022/09/18 03:40:48;;;;;;;;;;;8.20;99.90;;;;;;5035498;28;20338;-72
2022/09/18 03:43:20;;;;;;;;;;;8.20;99.90;;;;;;5058281;28;19924;-72
2022/09/18 03:45:52;;;;;;;;;;;8.20;99.90;;;;;;5071132;28;19934;-73
2022/09/18 03:48:24;;;;;;;;;;;8.20;99.90;;;;;;5080268;28;19924;-73
2022/09/18 03:50:56;;;;;;;;;;;8.20;99.90;;;;;;5056165;28;20268;-73
2022/09/18 03:53:27;;;;;;;;;;;8.20;99.90;;;;;;5069920;28;19924;-72
2022/09/18 03:56:17;;;;;;;;;;;8.20;99.90;;;;;;5068424;28;20042;-73
2022/09/18 03:59:09;;;;;;;;;;;8.20;99.90;;;;;;5046480;28;19932;-73
2022/09/18 04:02:05;;;;;;;;;;;8.20;99.90;;;;;;5059075;28;19940;-72
2022/09/18 04:05:03;;;;;;;;;;;8.20;99.90;;;;;;5066289;28;19924;-73
2022/09/18 04:07:53;;;;;;;;;;;8.20;99.90;;;;;;5073914;28;20375;-73
2022/09/18 04:10:51;;;;;;;;;;;8.20;99.90;;;;;;5074313;28;19932;-73
2022/09/18 04:13:23;;;;;;;;;;;8.20;99.90;;;;;;5058914;28;19951;-73
2022/09/18 04:16:01;;;;;;;;;;;8.20;99.90;;;;;;5055481;28;19963;-73
2022/09/18 04:18:33;;;;;;;;;;;8.10;99.90;;;;;;5063333;28;19925;-72
2022/09/18 04:21:01;;;;;;;;;;;8.10;99.90;;;;;;5068912;28;20417;-73
2022/09/18 04:23:33;;;;;;;;;;;8.10;99.90;;;;;;5054950;28;20021;-73
2022/09/18 04:26:08;;;;;;;;;;;8.10;99.90;;;;;;5055372;28;20383;-73
2022/09/18 04:28:47;;;;;;;;;;;8.20;99.90;;;;;;5040835;28;20011;-73
2022/09/18 04:31:18;;;;;;;;;;;8.20;99.90;;;;;;5055126;28;19967;-73
2022/09/18 04:33:52;;;;;;;;;;;8.20;99.90;;;;;;5060109;28;19936;-73
2022/09/18 04:36:24;;;;;;;;;;;8.20;99.90;;;;;;5042112;28;19925;-72
2022/09/18 04:38:55;;;;;;;;;;;8.20;99.90;;;;;;5077311;28;19975;-73
2022/09/18 04:41:27;;;;;;;;;;;8.20;99.90;;;;;;5047133;28;19931;-72
2022/09/18 04:43:55;;;;;;;;;;;8.20;99.90;;;;;;5062100;28;19928;-73
2022/09/18 04:46:27;;;;;;;;;;;8.20;99.90;;;;;;5058056;28;19924;-73
2022/09/18 04:48:54;;;;;;;;;;;8.20;99.90;;;;;;5086536;28;19924;-72
2022/09/18 04:51:27;;;;;;;;;;;8.20;99.90;;;;;;5060075;28;19990;-73
2022/09/18 04:53:58;;;;;;;;;;;8.20;99.90;;;;;;5055238;28;19935;-73
2022/09/18 04:56:34;;;;;;;;;;;8.20;99.90;;;;;;5062536;28;19971;-73
2022/09/18 04:59:06;;;;;;;;;;;8.30;99.90;;;;;;5082901;28;19948;-72
2022/09/18 05:01:34;;;;;;;;;;;8.30;99.90;;;;;;5074174;28;20011;-73
2022/09/18 05:04:10;;;;;;;;;;;8.30;99.90;;;;;;5061304;28;20477;-73
2022/09/18 05:06:56;;;;;;;;;;;8.30;99.90;;;;;;5060095;28;19967;-73
2022/09/18 05:09:28;;;;;;;;;;;8.30;99.90;;;;;;5063926;28;19924;-73
2022/09/18 05:12:00;;;;;;;;;;;8.30;99.90;;;;;;5067227;28;19928;-73
2022/09/18 05:14:34;;;;;;;;;;;8.30;99.90;;;;;;5042143;28;20404;-73
2022/09/18 05:17:08;;;;;;;;;;;8.30;99.90;;;;;;5056064;28;19924;-72
2022/09/18 05:19:37;;;;;;;;;;;8.30;99.90;;;;;;5064148;28;19935;-74
2022/09/18 05:22:15;;;;;;;;;;;8.30;99.90;;;;;;5057358;28;19931;-73
2022/09/18 05:24:49;;;;;;;;;;;8.30;99.90;;;;;;5084840;28;20653;-73
2022/09/18 05:27:21;;;;;;;;;;;8.30;99.90;;;;;;5085866;28;20332;-73
2022/09/18 05:29:54;;;;;;;;;;;8.40;99.90;;;;;;5078978;28;19974;-74
2022/09/18 05:32:26;;;;;;;;;;;8.40;99.90;;;;;;5057853;28;19975;-73
2022/09/18 05:34:57;;;;;;;;;;;8.40;99.90;;;;;;5065131;28;19924;-73
2022/09/18 05:37:24;;;;;;;;;;;8.40;99.90;;;;;;5085445;28;19931;-73
2022/09/18 05:39:56;;;;;;;;;;;8.30;99.90;;;;;;5057222;28;19932;-73
2022/09/18 05:42:30;;;;;;;;;;;8.30;99.90;;;;;;5049322;28;20043;-74
2022/09/18 05:45:03;;;;;;;;;;;8.40;99.90;;;;;;5080482;28;19935;-73
2022/09/18 05:47:35;;;;;;;;;;;8.40;99.90;;;;;;5047885;28;19924;-73
2022/09/18 05:50:08;;;;;;;;;;;8.40;99.90;;;;;;5067311;28;19924;-73
2022/09/18 05:52:40;;;;;;;;;;;8.40;99.90;;;;;;5058128;28;19993;-73
2022/09/18 05:55:13;;;;;;;;;;;8.40;99.90;;;;;;5059980;28;19948;-73
2022/09/18 05:57:44;;;;;;;;;;;8.40;99.90;;;;;;5078413;28;19946;-73
2022/09/18 06:00:16;;;;;;;;;;;8.40;99.90;;;;;;5075819;28;19925;-73
2022/09/18 06:02:59;;;;;;;;;;;8.40;99.90;;;;;;5057399;28;19925;-75
2022/09/18 06:05:32;;;;;;;;;;;8.40;99.90;;;;;;5046366;28;20390;-73
2022/09/18 06:08:05;;;;;;;;;;;8.50;99.90;;;;;;5061435;28;19925;-73
2022/09/18 06:10:38;;;;;;;;;;;8.50;99.90;;;;;;5067374;28;19934;-73
2022/09/18 06:13:11;;;;;;;;;;;8.50;99.90;;;;;;5059678;28;19935;-73
2022/09/18 06:15:50;;;;;;;;;;;8.50;99.90;;;;;;5041655;28;19978;-73
2022/09/18 06:18:25;;;;;;;;;;;8.50;99.90;;;;;;5040432;28;19993;-73
2022/09/18 06:20:59;;;;;;;;;;;8.50;99.90;;;;;;5059257;28;19928;-72
2022/09/18 06:23:28;;;;;;;;;;;8.50;99.90;;;;;;5059111;28;19928;-73
2022/09/18 06:26:10;;;;;;;;;;;8.50;99.90;;;;;;5069843;28;19924;-73
2022/09/18 06:28:45;;;;;;;;;;;8.50;99.90;;;;;;5050319;28;19977;-73
2022/09/18 06:31:16;;;;;;;;;;;8.50;99.90;;;;;;5063336;28;19931;-74
2022/09/18 06:33:59;;;;;;;;;;;8.50;99.90;;;;;;5056421;28;19933;-73
2022/09/18 06:36:31;;;;;;;;;;;8.60;99.90;;;;;;5065616;28;19963;-73
2022/09/18 06:39:35;;;;;;;;;;;8.60;99.90;;;;;;5048385;28;20342;-73
2022/09/18 06:42:09;;;;;;;;;;;8.60;99.90;;;;;;5052106;28;19932;-73
2022/09/18 06:45:19;;;;;;;;;;;8.60;99.90;;;;;;5041069;28;19925;-73
2022/09/18 06:47:53;;;;;;;;;;;8.70;99.90;;;;;;5020439;28;19979;-73
2022/09/18 06:50:21;;;;;;;;;;;8.70;99.90;;;;;;5035983;28;19932;-72
2022/09/18 06:52:53;;;;;;;;;;;8.70;99.90;;;;;;5069331;28;19928;-73
2022/09/18 06:55:25;;;;;;;;;;;8.70;99.90;;;;;;5039978;28;20307;-73
2022/09/18 06:57:59;;;;;;;;;;;8.70;99.90;;;;;;5039796;28;19951;-73
2022/09/18 07:00:30;;;;;;;;;;;8.70;99.90;;;;;;5054697;28;19967;-73
2022/09/18 07:03:02;;;;;;;;;;;8.70;99.90;;;;;;5067425;28;19928;-73
2022/09/18 07:06:07;;;;;;;;;;;8.70;99.90;;;;;;5045383;28;19928;-73
2022/09/18 07:08:45;;;;;;;;;;;8.80;99.90;;;;;;5053203;28;19924;-73
2022/09/18 07:11:50;;;;;;;;;;;8.80;99.90;;;;;;5042552;28;20003;-73
2022/09/18 07:14:30;;;;;;;;;;;8.80;99.90;;;;;;5059703;28;19935;-72
2022/09/18 07:17:08;;;;;;;;;;;8.80;99.90;;;;;;5056623;28;19941;-72
2022/09/18 07:19:40;;;;;;;;;;;8.80;99.90;;;;;;5061183;28;19924;-72
2022/09/18 07:22:14;;;;;;;;;;;8.80;99.90;;;;;;5055572;28;20955;-73
2022/09/18 07:24:46;;;;;;;;;;;8.80;99.90;;;;;;5072486;28;19939;-72
2022/09/18 07:27:18;;;;;;;;;;;8.80;99.90;;;;;;5056703;28;20391;-72
2022/09/18 07:29:50;;;;;;;;;;;8.90;99.90;;;;;;5055330;28;19928;-72
2022/09/18 07:32:22;;;;;;;;;;;8.90;99.90;;;;;;5058205;28;20172;-72
2022/09/18 07:34:56;;;;;;;;;;;8.90;99.90;;;;;;5056055;28;20495;-73
2022/09/18 07:37:32;;;;;;;;;;;8.90;99.90;;;;;;5062513;28;20386;-72
2022/09/18 07:40:24;;;;;;;;;;;8.90;99.90;;;;;;5072496;28;20292;-72
2022/09/18 07:43:08;;;;;;;;;;;8.90;99.90;;;;;;5060022;28;19928;-72
2022/09/18 07:45:39;;;;;;;;;;;8.90;99.90;;;;;;5062455;28;20023;-74
2022/09/18 07:48:11;;;;;;;;;;;8.90;99.90;;;;;;5053531;28;19928;-72
2022/09/18 07:50:46;;;;;;;;;;;9.00;99.90;;;;;;5074100;28;19929;-73
2022/09/18 07:53:15;;;;;;;;;;;9.00;99.90;;;;;;5044552;28;19978;-73
2022/09/18 07:55:51;;;;;;;;;;;9.10;99.90;;;;;;5054739;28;19936;-73
2022/09/18 07:58:24;;;;;;;;;;;9.10;99.90;;;;;;5059186;28;20367;-72
2022/09/18 08:01:16;;;;;;;;;;;9.10;99.90;;;;;;5071327;28;20454;-72
2022/09/18 08:03:53;;;;;;;;;;;9.20;99.90;;;;;;5050397;28;19931;-72
2022/09/18 08:06:34;;;;;;;;;;;9.30;99.90;;;;;;5070392;28;19931;-72
2022/09/18 08:09:35;;;;;;;;;;;9.30;99.90;;;;;;5035283;28;19928;-73
2022/09/18 08:12:20;;;;;;;;;;;9.40;99.90;;;;;;5075040;28;20171;-73
2022/09/18 08:15:15;;;;;;;;;;;9.40;99.90;;;;;;5033629;28;19924;-73
2022/09/18 08:18:10;;;;;;;;;;;9.40;99.90;;;;;;5054009;28;19928;-72
2022/09/18 08:21:00;;;;;;;;;;;9.50;99.90;;;;;;5078027;28;19947;-72
2022/09/18 08:23:40;;;;;;;;;;;9.50;99.90;;;;;;5059005;28;19928;-73
2022/09/18 08:26:12;;;;;;;;;;;9.50;99.90;;;;;;5065842;28;19938;-73
2022/09/18 08:28:45;;;;;;;;;;;9.50;99.90;;;;;;5053293;28;19924;-72
2022/09/18 08:31:17;;;;;;;;;;;9.50;99.90;;;;;;5051304;28;19924;-72
2022/09/18 08:33:54;;;;;;;;;;;9.50;99.90;;;;;;5055846;28;20159;-72
2022/09/18 08:36:26;;;;;;;;;;;9.60;99.90;;;;;;5057657;28;19978;-72
2022/09/18 08:39:01;;;;;;;;;;;9.60;99.90;;;;;;5058701;28;20711;-72
2022/09/18 08:42:02;;;;;;;;;;;9.70;99.90;;;;;;5068262;28;19935;-73
2022/09/18 08:44:43;;;;;;;;;;;9.70;99.90;;;;;;5057604;28;19998;-73
2022/09/18 08:47:25;;;;;;;;;;;9.80;99.90;;;;;;5052612;28;19925;-72
2022/09/18 08:50:18;;;;;;;;;;;9.90;99.90;;;;;;5056698;28;19928;-72
2022/09/18 08:52:55;;;;;;;;;;;10.00;99.90;;;;;;5054916;28;19939;-73
2022/09/18 08:55:46;;;;;;;;;;;10.10;99.90;;;;;;5077985;28;19935;-73
2022/09/18 08:58:45;;;;;;;;;;;10.10;99.90;;;;;;5042998;28;20309;-72
2022/09/18 09:01:18;;;;;;;;;;;10.20;99.90;;;;;;5065320;28;19928;-72
2022/09/18 09:04:03;;;;;;;;;;;10.30;99.90;;;;;;5058077;28;20011;-72
2022/09/18 09:06:49;;;;;;;;;;;10.30;99.90;;;;;;5051218;28;20453;-72
2022/09/18 09:09:32;;;;;;;;;;;10.30;99.90;;;;;;5052021;28;19925;-72
2022/09/18 09:12:19;;;;;;;;;;;10.30;99.90;;;;;;5074146;28;19928;-72
2022/09/18 09:15:02;;;;;;;;;;;10.30;99.90;;;;;;5059862;28;20019;-73
2022/09/18 09:17:39;;;;;;;;;;;10.30;99.90;;;;;;5033218;28;19928;-72
2022/09/18 09:20:20;;;;;;;;;;;10.40;99.90;;;;;;5045939;28;19924;-73
2022/09/18 09:23:00;;;;;;;;;;;10.40;99.90;;;;;;5073140;28;19931;-73
2022/09/18 09:25:34;;;;;;;;;;;10.50;99.90;;;;;;5059501;28;19947;-72
2022/09/18 09:28:27;;;;;;;;;;;10.50;99.90;;;;;;5049882;28;19935;-72
2022/09/18 09:31:19;;;;;;;;;;;10.60;99.90;;;;;;5059435;28;19989;-72
2022/09/18 09:34:16;;;;;;;;;;;10.70;99.90;;;;;;5063538;28;19928;-72
2022/09/18 09:36:50;;;;;;;;;;;10.70;99.90;;;;;;5060274;28;19973;-72
2022/09/18 09:39:24;;;;;;;;;;;10.80;99.90;;;;;;5041910;28;19958;-72
2022/09/18 09:42:17;;;;;;;;;;;10.70;99.90;;;;;;5057992;28;19925;-72
2022/09/18 09:44:49;;;;;;;;;;;10.80;99.90;;;;;;5059587;28;19942;-73
2022/09/18 09:47:43;;;;;;;;;;;10.80;99.90;;;;;;5064170;28;19986;-72
2022/09/18 09:50:24;;;;;;;;;;;10.80;99.90;;;;;;5073683;28;19951;-72
2022/09/18 09:52:58;;;;;;;;;;;10.80;99.90;;;;;;5062081;28;20386;-72
2022/09/18 09:55:50;;;;;;;;;;;10.80;99.90;;;;;;5060061;28;19929;-72
2022/09/18 09:58:21;;;;;;;;;;;10.80;99.90;;;;;;5046222;28;19932;-72
2022/09/18 10:01:01;;;;;;;;;;;10.80;99.90;;;;;;5063558;28;20280;-73
2022/09/18 10:03:37;;;;;;;;;;;10.70;99.90;;;;;;5058799;28;19936;-72
2022/09/18 10:06:13;;;;;;;;;;;10.80;99.90;;;;;;5045625;28;20415;-72
2022/09/18 10:08:48;;;;;;;;;;;10.80;99.90;;;;;;5074091;28;19925;-72
2022/09/18 10:11:16;;;;;;;;;;;10.80;99.90;;;;;;5051919;28;19924;-73
2022/09/18 10:14:07;;;;;;;;;;;10.80;99.90;;;;;;5041421;28;19934;-72
2022/09/18 10:16:51;;;;;;;;;;;10.80;99.90;;;;;;5056514;28;19978;-72
2022/09/18 10:19:26;;;;;;;;;;;10.80;99.90;;;;;;5053919;28;19948;-72
2022/09/18 10:21:58;;;;;;;;;;;11.00;99.90;;;;;;5047722;28;19925;-72
2022/09/18 10:24:28;;;;;;;;;;;10.90;99.90;;;;;;5050212;28;19960;-73
2022/09/18 10:27:14;;;;;;;;;;;11.10;99.90;;;;;;5077760;28;20397;-72
2022/09/18 10:29:45;;;;;;;;;;;11.10;99.90;;;;;;5057589;28;19929;-72
2022/09/18 10:32:42;;;;;;;;;;;11.20;99.90;;;;;;5053710;28;20008;-72
2022/09/18 10:35:41;;;;;;;;;;;11.30;99.90;;;;;;5062944;28;20460;-73
2022/09/18 10:38:25;;;;;;;;;;;11.40;99.90;;;;;;5056574;28;19928;-72
2022/09/18 10:41:22;;;;;;;;;;;11.50;99.90;;;;;;5032887;28;19931;-71
2022/09/18 10:43:53;;;;;;;;;;;11.50;99.90;;;;;;5016436;28;20308;-73
2022/09/18 10:46:29;;;;;;;;;;;11.40;99.90;;;;;;5023244;28;19925;-72
2022/09/18 10:49:14;;;;;;;;;;;11.40;99.90;;;;;;5058966;28;19929;-71
2022/09/18 10:51:46;;;;;;;;;;;11.40;99.90;;;;;;5062086;28;20011;-72
2022/09/18 10:54:21;;;;;;;;;;;11.40;99.90;;;;;;5037120;28;19930;-72
2022/09/18 10:57:24;;;;;;;;;;;11.40;99.90;;;;;;5052845;28;20335;-71
2022/09/18 10:59:51;;;;;;;;;;;11.50;99.90;;;;;;5070959;28;20003;-72
2022/09/18 11:02:25;;;;;;;;;;;11.60;99.90;;;;;;5065206;28;20639;-72
2022/09/18 11:04:57;;;;;;;;;;;11.60;99.90;;;;;;5051691;28;19924;-71
2022/09/18 11:07:38;;;;;;;;;;;11.60;99.90;;;;;;5051570;28;19956;-72
2022/09/18 11:10:14;;;;;;;;;;;11.60;99.90;;;;;;5050243;28;19935;-71
2022/09/18 11:12:45;;;;;;;;;;;11.60;99.90;;;;;;5056293;28;19924;-71
2022/09/18 11:15:20;;;;;;;;;;;11.50;99.90;;;;;;5056161;28;20360;-72
2022/09/18 11:17:54;;;;;;;;;;;11.50;99.90;;;;;;5055327;28;19924;-71
2022/09/18 11:20:26;;;;;;;;;;;11.60;99.90;;;;;;5059871;28;20755;-71
2022/09/18 11:23:35;;;;;;;;;;;11.60;99.90;;;;;;5035085;28;19932;-71
2022/09/18 11:26:10;;;;;;;;;;;11.60;99.90;;;;;;4997832;28;19967;-72
2022/09/18 11:28:37;;;;;;;;;;;11.70;99.90;;;;;;5056714;28;19967;-71
2022/09/18 11:31:17;;;;;;;;;;;11.70;99.90;;;;;;5053663;28;19928;-71
2022/09/18 11:33:55;;;;;;;;;;;11.90;99.90;;;;;;5049089;28;19938;-71
2022/09/18 11:36:31;;;;;;;;;;;12.10;99.90;;;;;;5050527;28;19968;-72
2022/09/18 11:39:11;;;;;;;;;;;12.20;99.90;;;;;;5057777;28;19924;-71
2022/09/18 11:41:47;;;;;;;;;;;12.20;99.90;;;;;;5050917;28;19951;-71
2022/09/18 11:44:30;;;;;;;;;;;12.20;99.90;;;;;;5070492;28;19964;-71
2022/09/18 11:47:11;;;;;;;;;;;12.20;99.90;;;;;;5047585;28;19924;-71
2022/09/18 11:49:40;;;;;;;;;;;12.30;99.90;;;;;;5060167;28;20379;-71
2022/09/18 11:52:16;;;;;;;;;;;12.30;99.90;;;;;;5076955;28;19939;-71
2022/09/18 11:55:16;;;;;;;;;;;12.20;99.90;;;;;;5064937;28;19924;-71
2022/09/18 11:58:00;;;;;;;;;;;12.10;99.90;;;;;;5063763;28;19930;-71
2022/09/18 12:00:50;;;;;;;;;;;12.20;99.90;;;;;;5040884;28;19967;-72
2022/09/18 12:03:25;;;;;;;;;;;12.30;99.90;;;;;;5056393;28;20019;-71
2022/09/18 12:06:17;;;;;;;;;;;12.40;99.90;;;;;;5059997;28;19982;-71
2022/09/18 12:08:55;;;;;;;;;;;12.30;99.90;;;;;;5047736;28;20049;-72
2022/09/18 12:11:33;;;;;;;;;;;12.30;99.90;;;;;;5063580;28;20287;-72
2022/09/18 12:14:17;;;;;;;;;;;12.30;99.90;;;;;;5046402;28;19928;-71
2022/09/18 12:17:42;;;;;;;;;;;12.30;99.90;;;;;;5057718;28;20334;-72
2022/09/18 12:20:14;;;;;;;;;;;12.50;99.90;;;;;;5055036;28;19924;-72
2022/09/18 12:22:50;;;;;;;;;;;12.70;99.90;;;;;;5052968;28;19928;-72
2022/09/18 12:25:28;;;;;;;;;;;12.60;99.90;;;;;;5056393;28;19952;-72
2022/09/18 12:28:20;;;;;;;;;;;12.60;99.90;;;;;;5045778;28;20357;-72
2022/09/18 12:30:54;;;;;;;;;;;12.70;99.90;;;;;;5041246;28;20028;-72
2022/09/18 12:33:38;;;;;;;;;;;12.70;99.90;;;;;;5055983;28;20302;-72
2022/09/18 12:36:28;;;;;;;;;;;12.80;99.90;;;;;;5045295;28;19991;-72
2022/09/18 12:39:12;;;;;;;;;;;12.70;99.90;;;;;;5058294;28;19964;-72
2022/09/18 12:41:44;;;;;;;;;;;12.80;99.90;;;;;;5065984;28;19932;-72
2022/09/18 12:44:25;;;;;;;;;;;12.90;99.90;;;;;;5049858;28;19939;-72
2022/09/18 12:47:10;;;;;;;;;;;12.90;99.90;;;;;;5050874;28;19924;-72
2022/09/18 12:49:57;;;;;;;;;;;13.00;99.90;;;;;;5061014;28;20013;-71
2022/09/18 12:52:43;;;;;;;;;;;13.00;99.90;;;;;;5043336;28;20640;-72
2022/09/18 12:55:20;;;;;;;;;;;13.00;99.90;;;;;;5048308;28;19928;-71
2022/09/18 12:58:16;;;;;;;;;;;13.00;99.90;;;;;;5057543;28;19929;-72
2022/09/18 13:00:49;;;;;;;;;;;13.00;99.90;;;;;;5056757;28;19928;-71
2022/09/18 13:03:30;;;;;;;;;;;13.10;99.90;;;;;;5053833;28;20399;-72
2022/09/18 13:06:07;;;;;;;;;;;13.00;99.90;;;;;;5036224;28;19967;-71
2022/09/18 13:08:43;;;;;;;;;;;13.00;99.90;;;;;;5063062;28;20386;-71
2022/09/18 13:11:35;;;;;;;;;;;12.90;99.90;;;;;;5060420;28;20358;-71
2022/09/18 13:14:05;;;;;;;;;;;12.90;99.90;;;;;;5070121;28;19998;-72
2022/09/18 13:16:42;;;;;;;;;;;12.80;99.90;;;;;;5052043;28;19958;-72
2022/09/18 13:19:16;;;;;;;;;;;12.70;99.90;;;;;;5068004;28;19936;-71
2022/09/18 13:21:50;;;;;;;;;;;12.70;99.90;;;;;;5070079;28;19924;-72
2022/09/18 13:24:23;;;;;;;;;;;12.70;99.90;;;;;;5071003;28;19925;-71
2022/09/18 13:26:50;;;;;;;;;;;12.70;99.90;;;;;;5071356;28;19924;-71
2022/09/18 13:29:36;;;;;;;;;;;12.70;99.90;;;;;;5061707;28;20006;-71
2022/09/18 13:32:08;;;;;;;;;;;12.60;99.90;;;;;;5071855;28;19928;-72
2022/09/18 13:34:36;;;;;;;;;;;12.60;99.90;;;;;;5079625;28;19971;-71
2022/09/18 13:37:14;;;;;;;;;;;12.50;99.90;;;;;;5073442;28;19955;-71
2022/09/18 13:39:50;;;;;;;;;;;12.60;99.90;;;;;;5076649;28;19959;-71
2022/09/18 13:42:32;;;;;;;;;;;12.60;99.90;;;;;;5074753;28;19975;-72
2022/09/18 13:45:06;;;;;;;;;;;12.50;99.90;;;;;;5082408;28;20308;-73
2022/09/18 13:47:53;;;;;;;;;;;12.60;99.90;;;;;;5079370;28;20367;-72
2022/09/18 13:50:24;;;;;;;;;;;12.60;99.90;;;;;;5073822;28;19928;-73
2022/09/18 13:52:57;;;;;;;;;;;12.80;99.90;;;;;;5055342;28;19929;-72
2022/09/18 13:55:33;;;;;;;;;;;12.90;99.90;;;;;;5063803;28;19928;-73
2022/09/18 13:58:23;;;;;;;;;;;12.70;99.90;;;;;;5057076;28;19928;-73
2022/09/18 14:00:56;;;;;;;;;;;12.70;99.90;;;;;;5083050;28;19982;-72
2022/09/18 14:03:22;;;;;;;;;;;12.70;99.90;;;;;;5053822;28;19932;-73
2022/09/18 14:05:49;;;;;;;;;;;12.60;99.90;;;;;;5075637;28;20022;-72
2022/09/18 14:08:21;;;;;;;;;;;12.70;99.90;;;;;;5066938;28;19951;-72
2022/09/18 14:10:56;;;;;;;;;;;12.80;99.90;;;;;;5056925;28;19924;-72
2022/09/18 14:13:31;;;;;;;;;;;12.90;99.90;;;;;;5056139;28;19977;-72
2022/09/18 14:16:06;;;;;;;;;;;13.00;99.90;;;;;;5073365;28;19924;-72
2022/09/18 14:18:57;;;;;;;;;;;13.00;99.90;;;;;;5043547;28;19924;-72
2022/09/18 14:21:30;;;;;;;;;;;13.10;99.90;;;;;;5051223;28;20340;-72
2022/09/18 14:24:17;;;;;;;;;;;13.20;99.90;;;;;;5058580;28;20333;-72
2022/09/18 14:26:53;;;;;;;;;;;13.20;99.90;;;;;;5060420;28;19928;-72
2022/09/18 14:29:27;;;;;;;;;;;13.30;99.90;;;;;;5078609;28;19928;-73
2022/09/18 14:31:54;;;;;;;;;;;13.20;99.90;;;;;;5061581;28;20460;-72
2022/09/18 14:34:26;;;;;;;;;;;13.10;99.90;;;;;;5076804;28;20474;-72
2022/09/18 14:36:54;;;;;;;;;;;13.10;99.90;;;;;;5081939;28;19924;-73
2022/09/18 14:39:36;;;;;;;;;;;13.00;99.90;;;;;;5057067;28;19929;-72
2022/09/18 14:42:04;;;;;;;;;;;13.00;99.90;;;;;;5083346;28;19929;-73
2022/09/18 14:44:32;;;;;;;;;;;13.00;99.90;;;;;;5059002;28;19925;-73
2022/09/18 14:47:05;;;;;;;;;;;13.00;99.90;;;;;;5065512;28;19932;-72
2022/09/18 14:49:43;;;;;;;;;;;13.00;99.90;;;;;;5084282;28;19924;-73
2022/09/18 14:52:20;;;;;;;;;;;12.90;99.90;;;;;;5081213;28;19936;-72
2022/09/18 14:54:53;;;;;;;;;;;12.90;99.90;;;;;;5085191;28;19927;-72
2022/09/18 14:57:34;;;;;;;;;;;12.90;99.90;;;;;;5068721;28;19932;-72
2022/09/18 15:00:07;;;;;;;;;;;12.90;99.90;;;;;;5062260;28;19932;-73
2022/09/18 15:02:39;;;;;;;;;;;12.90;99.90;;;;;;5052669;28;19932;-73
2022/09/18 15:05:11;;;;;;;;;;;12.80;99.90;;;;;;5078749;28;19935;-73
2022/09/18 15:07:53;;;;;;;;;;;12.90;99.90;;;;;;5078553;28;19932;-73
2022/09/18 15:10:26;;;;;;;;;;;12.80;99.90;;;;;;5071013;28;19928;-73
2022/09/18 15:12:58;;;;;;;;;;;12.80;99.90;;;;;;5078077;28;20300;-73
2022/09/18 15:15:26;;;;;;;;;;;12.80;99.90;;;;;;5063818;28;19932;-72
2022/09/18 15:17:53;;;;;;;;;;;12.80;99.90;;;;;;5078869;28;19928;-72
2022/09/18 15:20:25;;;;;;;;;;;12.80;99.90;;;;;;5076100;28;19928;-72
2022/09/18 15:22:57;;;;;;;;;;;12.70;99.90;;;;;;5076810;28;19929;-72